| time (UTC) | temp F | wind direction | speed knots | gust knots | rain 1hr in | rain 24hr in | rain mn in | humidity % | barometer mb |
| 20260905153054 | 73 | 165 | 0.9 | 12.2 | 0.00 | 0.13 | 0.13 | 59 | 1020.1 |
| 20260905151551 | 73 | 360 | 0.0 | 8.7 | 0.00 | 0.13 | 0.13 | 58 | 1020.2 |
| 20260905150059 | 73 | 0 | 2.6 | 10.4 | 0.00 | 0.13 | 0.13 | 56 | 1020.3 |
| 20260905144559 | 73 | 0 | 0.9 | 12.2 | 0.00 | 0.13 | 0.13 | 55 | 1020.4 |
| 20260905143102 | 72 | 242 | 7.8 | 8.7 | 0.00 | 0.13 | 0.13 | 55 | 1020.5 |
| 20260905141558 | 72 | 271 | 2.6 | 12.2 | 0.00 | 0.13 | 0.13 | 58 | 1020.5 |
| 20260905140100 | 72 | 237 | 6.1 | 13.0 | 0.00 | 0.13 | 0.13 | 57 | 1020.5 |
| 20260905134601 | 71 | 360 | 4.3 | 13.9 | 0.00 | 0.13 | 0.13 | 55 | 1020.6 |
| 20260905133102 | 71 | 360 | 8.7 | 0.0 | 0.00 | 0.13 | 0.13 | 55 | 1020.6 |
| 20260905131557 | 71 | 360 | 4.3 | 11.3 | 0.00 | 0.13 | 0.13 | 57 | 1020.7 |
| 20260905130053 | 70 | 0 | 5.2 | 13.0 | 0.00 | 0.13 | 0.13 | 62 | 1020.6 |
| 20260905124550 | 69 | 360 | 3.5 | 11.3 | 0.00 | 0.13 | 0.13 | 64 | 1020.6 |
| 20260905123048 | 68 | 276 | 7.8 | 12.2 | 0.00 | 0.13 | 0.13 | 66 | 1020.7 |
| 20260905121555 | 68 | 360 | 5.2 | 13.0 | 0.00 | 0.13 | 0.13 | 69 | 1020.7 |
| 20260905120055 | 67 | 293 | 0.0 | 9.6 | 0.00 | 0.13 | 0.13 | 72 | 1020.6 |
| 20260905114559 | 65 | 360 | 4.3 | 11.3 | 0.00 | 0.13 | 0.13 | 77 | 1020.9 |
| 20260905113053 | 64 | 360 | 0.9 | 0.0 | 0.00 | 0.13 | 0.13 | 80 | 1020.8 |
| 20260905111622 | 63 | 0 | 1.7 | 3.5 | 0.00 | 0.13 | 0.13 | 81 | 1020.9 |
| 20260905110056 | 62 | 0 | 0.0 | 5.2 | 0.00 | 0.13 | 0.13 | 83 | 1020.9 |
| 20260905104607 | 61 | 0 | 0.0 | 2.6 | 0.00 | 0.13 | 0.13 | 83 | 1020.7 |
| 20260905103055 | 60 | 0 | 0.0 | 1.7 | 0.03 | 0.13 | 0.13 | 84 | 1020.7 |
| 20260905101554 | 60 | 0 | 0.0 | 3.5 | 0.06 | 0.12 | 0.12 | 83 | 1020.6 |
| 20260905100052 | 60 | 0 | 0.0 | 1.7 | 0.06 | 0.12 | 0.12 | 85 | 1020.6 |
| 20260905094652 | 59 | 0 | 0.0 | 6.1 | 0.07 | 0.12 | 0.12 | 84 | 1020.5 |
| 20260905093103 | 59 | 0 | 0.0 | 3.5 | 0.05 | 0.10 | 0.10 | 84 | 1020.6 |
| 20260905091557 | 58 | 0 | 0.0 | 3.5 | 0.02 | 0.06 | 0.06 | 83 | 1020.7 |
| 20260905090057 | 58 | 0 | 0.0 | 4.3 | 0.03 | 0.06 | 0.06 | 83 | 1020.4 |
| 20260905084603 | 58 | 165 | 0.9 | 4.3 | 0.03 | 0.05 | 0.05 | 83 | 1020.1 |
| 20260905083049 | 58 | 0 | 0.0 | 7.0 | 0.03 | 0.04 | 0.04 | 82 | 1020.7 |
| 20260905081549 | 59 | 0 | 0.0 | 5.2 | 0.02 | 0.03 | 0.03 | 80 | 1020.5 |
| 20260905080110 | 60 | 0 | 0.0 | 2.6 | 0.00 | 0.02 | 0.02 | 77 | 1020.1 |
| 20260905074601 | 60 | 0 | 0.0 | 0.0 | 0.00 | 0.01 | 0.01 | 75 | 1020.0 |
| 20260905073107 | 61 | 0 | 0.0 | 0.0 | 0.00 | 0.01 | 0.01 | 76 | 1019.7 |
| 20260905071553 | 60 | 0 | 0.0 | 0.0 | 0.01 | 0.01 | 0.01 | 78 | 1019.6 |
| 20260905070100 | 60 | 0 | 0.0 | 0.0 | 0.01 | 0.01 | 0.01 | 77 | 1019.6 |
| 20260905064554 | 60 | 0 | 0.0 | 0.0 | 0.00 | 0.00 | 0.00 | 75 | 1019.6 |
| 20260905063050 | 60 | 0 | 0.0 | 0.0 | 0.00 | 0.00 | 0.00 | 74 | 1019.5 |
| 20260905061602 | 60 | 0 | 0.0 | 0.0 | 0.00 | 0.00 | 0.00 | 72 | 1019.2 |
| 20260905060104 | 60 | 0 | 0.0 | 0.0 | 0.00 | 0.00 | 0.00 | 72 | 1018.6 |
| 20260905054605 | 61 | 0 | 0.0 | 0.0 | 0.00 | 0.00 | 0.00 | 70 | 1018.5 |
| 20260905053054 | 61 | 0 | 0.0 | 0.0 | 0.00 | 0.00 | 0.00 | 69 | 1018.9 |
| 20260905051604 | 61 | 0 | 0.0 | 0.0 | 0.00 | 0.00 | 0.00 | 67 | 1018.8 |
| 20260905050057 | 62 | 0 | 0.0 | 0.9 | 0.00 | 0.00 | 0.00 | 64 | 1019.1 |
| 20260905044557 | 62 | 360 | 1.7 | 7.8 | 0.00 | 0.00 | 0.00 | 62 | 1018.8 |
| 20260905043055 | 63 | 360 | 1.7 | 11.3 | 0.00 | 0.00 | 0.00 | 63 | 1018.3 |
| 20260905041556 | 63 | 41 | 0.9 | 5.2 | 0.00 | 0.00 | 0.00 | 65 | 1018.1 |
| 20260905040107 | 64 | 0 | 0.9 | 8.7 | 0.00 | 0.00 | 0.00 | 65 | 1017.8 |
| 20260905034554 | 65 | 40 | 0.9 | 8.7 | 0.00 | 0.00 | 0.00 | 67 | 1017.6 |
| 20260905033104 | 65 | 360 | 0.9 | 9.6 | 0.00 | 0.00 | 0.00 | 67 | 1017.4 |
| 20260905031549 | 65 | 0 | 1.7 | 8.7 | 0.00 | 0.00 | 0.00 | 68 | 1016.8 |
| 20260905030108 | 65 | 0 | 0.0 | 0.0 | 0.00 | 0.00 | 0.00 | 67 | 1016.6 |
| 20260905024603 | 66 | 0 | 0.0 | 0.0 | 0.00 | 0.00 | 0.00 | 66 | 1016.2 |
| 20260905023053 | 67 | 0 | 0.0 | 0.0 | 0.00 | 0.00 | 0.00 | 65 | 1015.8 |
| 20260905021548 | 67 | 0 | 0.0 | 0.0 | 0.00 | 0.00 | 0.00 | 63 | 1015.8 |
| 20260905020056 | 68 | 0 | 0.0 | 0.0 | 0.00 | 0.00 | 0.00 | 63 | 1015.9 |
| 20260905014553 | 69 | 0 | 0.0 | 0.0 | 0.00 | 0.00 | 0.00 | 62 | 1015.6 |
| 20260905013117 | 69 | 0 | 0.0 | 0.0 | 0.00 | 0.00 | 0.00 | 61 | 1015.4 |
| 20260905011606 | 70 | 0 | 0.0 | 5.2 | 0.00 | 0.00 | 0.00 | 61 | 1015.5 |
| 20260905010059 | 70 | 250 | 0.0 | 5.2 | 0.00 | 0.00 | 0.00 | 60 | 1015.4 |
| 20260905004607 | 71 | 0 | 0.0 | 0.0 | 0.00 | 0.00 | 0.00 | 59 | 1015.4 |
| 20260905003049 | 71 | 280 | 0.0 | 3.5 | 0.00 | 0.00 | 0.00 | 57 | 1015.4 |
| 20260905001604 | 72 | 290 | 0.0 | 7.8 | 0.00 | 0.00 | 0.00 | 57 | 1015.5 |
| 20260905000055 | 72 | 131 | 0.0 | 3.5 | 0.00 | 0.00 | 0.00 | 55 | 1015.1 |
| 20260904234554 | 73 | 0 | 0.0 | 2.6 | 0.00 | 0.00 | 0.00 | 55 | 1015.0 |
| 20260904233058 | 73 | 0 | 0.0 | 3.5 | 0.00 | 0.00 | 0.00 | 55 | 1014.8 |
| 20260904231558 | 73 | 0 | 0.0 | 5.2 | 0.00 | 0.00 | 0.00 | 54 | 1014.8 |
| 20260904230108 | 73 | 174 | 0.0 | 6.1 | 0.00 | 0.00 | 0.00 | 54 | 1014.9 |
| 20260904224621 | 73 | 0 | 0.0 | 7.8 | 0.00 | 0.00 | 0.00 | 54 | 1014.9 |
| 20260904223109 | 73 | 0 | 0.0 | 5.2 | 0.00 | 0.00 | 0.00 | 54 | 1014.7 |
| 20260904221602 | 73 | 0 | 0.0 | 3.5 | 0.00 | 0.00 | 0.00 | 54 | 1014.7 |
| 20260904220100 | 73 | 221 | 0.0 | 7.8 | 0.00 | 0.00 | 0.00 | 54 | 1014.6 |
| 20260904214555 | 73 | 0 | 0.0 | 7.0 | 0.00 | 0.00 | 0.00 | 53 | 1014.5 |
| 20260904213101 | 73 | 0 | 0.0 | 3.5 | 0.00 | 0.00 | 0.00 | 53 | 1014.4 |
| 20260904211555 | 73 | 0 | 0.0 | 2.6 | 0.00 | 0.00 | 0.00 | 53 | 1014.3 |
| 20260904210055 | 74 | 0 | 0.0 | 1.7 | 0.00 | 0.00 | 0.00 | 52 | 1014.4 |
| 20260904204549 | 74 | 0 | 0.0 | 2.6 | 0.00 | 0.00 | 0.00 | 52 | 1014.4 |
| 20260904203057 | 74 | 0 | 0.0 | 0.9 | 0.00 | 0.00 | 0.00 | 51 | 1014.4 |
| 20260904201613 | 74 | 0 | 0.0 | 7.0 | 0.00 | 0.00 | 0.00 | 51 | 1014.4 |
| 20260904200108 | 74 | 0 | 0.0 | 3.5 | 0.00 | 0.00 | 0.00 | 50 | 1014.3 |
| 20260904194553 | 75 | 0 | 0.0 | 3.5 | 0.00 | 0.00 | 0.00 | 50 | 1014.3 |
| 20260904193046 | 75 | 0 | 0.0 | 3.5 | 0.00 | 0.00 | 0.00 | 49 | 1014.2 |
| 20260904191552 | 75 | 0 | 0.0 | 2.6 | 0.00 | 0.00 | 0.00 | 49 | 1014.0 |
| 20260904190051 | 76 | 0 | 0.0 | 6.1 | 0.00 | 0.00 | 0.00 | 48 | 1013.6 |
| 20260904184553 | 76 | 0 | 0.0 | 3.5 | 0.00 | 0.00 | 0.00 | 47 | 1013.4 |
| 20260904183046 | 77 | 0 | 0.0 | 3.5 | 0.00 | 0.00 | 0.00 | 46 | 1013.3 |
| 20260904181553 | 77 | 176 | 0.0 | 3.5 | 0.00 | 0.00 | 0.00 | 45 | 1013.2 |
| 20260904180050 | 78 | 0 | 0.0 | 7.0 | 0.00 | 0.00 | 0.00 | 44 | 1013.0 |
| 20260904174551 | 79 | 0 | 0.0 | 7.8 | 0.00 | 0.00 | 0.00 | 43 | 1012.9 |
| 20260904173047 | 79 | 0 | 0.0 | 7.0 | 0.00 | 0.00 | 0.00 | 42 | 1012.8 |
| 20260904171616 | 80 | 191 | 0.9 | 10.4 | 0.00 | 0.00 | 0.00 | 42 | 1012.8 |
| 20260904170051 | 81 | 133 | 0.9 | 0.0 | 0.00 | 0.00 | 0.00 | 42 | 1012.8 |
| 20260904164549 | 81 | 294 | 0.0 | 11.3 | 0.00 | 0.00 | 0.00 | 42 | 1012.9 |
| 20260904163058 | 82 | 293 | 3.5 | 12.2 | 0.00 | 0.00 | 0.00 | 40 | 1012.9 |
| 20260904161559 | 83 | 227 | 4.3 | 11.3 | 0.00 | 0.00 | 0.00 | 40 | 1013.0 |
| 20260904160058 | 83 | 360 | 1.7 | 13.9 | 0.00 | 0.00 | 0.00 | 39 | 1013.0 |
| 20260904154550 | 84 | 183 | 2.6 | 2.6 | 0.00 | 0.00 | 0.00 | 38 | 1013.1 |